createdAt,value
2017-12-23T00:00:01.481Z,91.70
2017-12-23T00:02:30.706Z,92.10
2017-12-23T00:04:59.548Z,92.10
2017-12-23T00:07:28.758Z,92.40
2017-12-23T00:09:57.860Z,92.40
2017-12-23T00:12:27.074Z,91.80
2017-12-23T00:14:55.417Z,91.80
2017-12-23T00:17:24.574Z,92.10
2017-12-23T00:22:27.278Z,91.90
2017-12-23T00:24:55.714Z,91.80
2017-12-23T00:27:24.060Z,91.30
2017-12-23T00:29:52.450Z,91.30
2017-12-23T00:32:21.558Z,91.00
2017-12-23T00:34:50.671Z,91.60
2017-12-23T00:37:19.412Z,91.60
2017-12-23T00:39:47.940Z,91.40
2017-12-23T00:42:16.302Z,91.30
2017-12-23T00:44:44.767Z,91.30
2017-12-23T00:47:13.882Z,91.80
2017-12-23T00:49:42.219Z,91.80
2017-12-23T00:52:10.575Z,91.50
2017-12-23T00:54:38.708Z,91.40
2017-12-23T00:57:07.070Z,91.60
2017-12-23T00:59:36.183Z,91.40
2017-12-23T01:02:05.489Z,91.50
2017-12-23T01:04:33.911Z,91.50
2017-12-23T01:07:02.250Z,91.50
2017-12-23T01:09:30.606Z,92.20
2017-12-23T01:11:59.734Z,91.90
2017-12-23T01:14:28.092Z,91.80
2017-12-23T01:16:57.182Z,91.50
2017-12-23T01:19:26.301Z,91.30
2017-12-23T01:21:54.644Z,91.20
2017-12-23T01:24:23.747Z,91.50
2017-12-23T01:26:52.863Z,91.20
2017-12-23T01:29:21.196Z,91.10
2017-12-23T01:31:50.358Z,90.80
2017-12-23T01:34:19.348Z,91.20
2017-12-23T01:36:47.983Z,91.10
2017-12-23T01:39:16.395Z,91.40
2017-12-23T01:41:44.759Z,91.00
2017-12-23T01:44:13.874Z,91.40
2017-12-23T01:46:42.221Z,91.30
2017-12-23T01:49:10.604Z,92.00
2017-12-23T01:51:39.832Z,91.20
2017-12-23T01:54:08.173Z,91.20
2017-12-23T01:56:36.528Z,91.10
2017-12-23T01:59:04.862Z,91.20
2017-12-23T02:01:33.196Z,91.30
2017-12-23T02:04:01.581Z,91.10
2017-12-23T02:06:29.940Z,91.10
2017-12-23T02:08:58.285Z,91.20
2017-12-23T02:11:26.628Z,91.00
2017-12-23T02:13:55.757Z,91.30
2017-12-23T02:16:24.078Z,91.30
2017-12-23T02:18:52.486Z,91.10
2017-12-23T02:21:21.573Z,91.40
2017-12-23T02:23:51.867Z,91.50
2017-12-23T02:26:20.749Z,91.50
2017-12-23T02:28:49.943Z,91.80
2017-12-23T02:31:18.787Z,91.20
2017-12-23T02:33:47.263Z,91.10
2017-12-23T02:36:15.669Z,91.00
2017-12-23T02:38:44.965Z,91.00
2017-12-23T02:41:13.295Z,91.00
2017-12-23T02:43:41.737Z,90.90
2017-12-23T02:46:10.057Z,91.30
2017-12-23T02:48:39.205Z,91.50
2017-12-23T02:51:07.551Z,91.50
2017-12-23T02:53:35.953Z,91.70
2017-12-23T02:56:04.306Z,91.10
2017-12-23T02:58:33.399Z,91.30
2017-12-23T03:01:01.755Z,91.40
2017-12-23T03:03:30.115Z,91.30
2017-12-23T03:05:58.455Z,91.10
2017-12-23T03:08:26.826Z,91.10
2017-12-23T03:10:55.169Z,91.40
2017-12-23T03:13:24.301Z,91.20
2017-12-23T03:15:52.627Z,91.20
2017-12-23T03:18:21.038Z,91.60
2017-12-23T03:20:49.386Z,91.30
2017-12-23T03:23:18.023Z,91.70
2017-12-23T03:25:46.355Z,91.20
2017-12-23T03:28:15.500Z,91.40
2017-12-23T03:30:43.840Z,91.40
2017-12-23T03:33:13.162Z,91.30
2017-12-23T03:35:41.542Z,91.30
2017-12-23T03:38:09.882Z,91.20
2017-12-23T03:40:38.993Z,90.90
2017-12-23T03:43:07.343Z,90.90
2017-12-23T03:45:35.767Z,91.30
2017-12-23T03:48:04.177Z,90.90
2017-12-23T03:50:32.531Z,91.00
2017-12-23T03:53:00.865Z,91.00
2017-12-23T03:55:29.990Z,90.80
2017-12-23T03:57:58.315Z,90.80
2017-12-23T04:00:26.660Z,91.00
2017-12-23T04:02:55.008Z,91.00
2017-12-23T04:05:23.405Z,91.00
2017-12-23T04:07:51.985Z,90.80
2017-12-23T04:10:21.214Z,91.00
2017-12-23T04:12:49.553Z,91.00
2017-12-23T04:15:17.957Z,90.90
2017-12-23T04:17:46.285Z,91.20
2017-12-23T04:20:16.354Z,91.00
2017-12-23T04:22:44.756Z,91.10
2017-12-23T04:25:13.137Z,91.00
2017-12-23T04:27:41.500Z,90.90
2017-12-23T04:30:09.841Z,90.70
2017-12-23T04:32:38.185Z,91.10
2017-12-23T04:35:08.107Z,90.90
2017-12-23T04:37:36.446Z,90.80
2017-12-23T04:40:04.810Z,90.90
2017-12-23T04:42:33.145Z,90.80
2017-12-23T04:45:01.567Z,91.00
2017-12-23T04:47:29.899Z,90.80
2017-12-23T04:49:58.242Z,91.00
2017-12-23T04:52:26.601Z,90.80
2017-12-23T04:54:54.952Z,90.80
2017-12-23T04:57:23.312Z,91.00
2017-12-23T04:59:51.687Z,90.80
2017-12-23T05:02:20.786Z,90.90
2017-12-23T05:04:49.124Z,91.00
2017-12-23T05:07:19.014Z,91.10
2017-12-23T05:09:47.370Z,91.10
2017-12-23T05:12:15.717Z,91.00
2017-12-23T05:14:44.140Z,90.90
2017-12-23T05:17:12.507Z,90.80
2017-12-23T05:19:40.840Z,90.60
2017-12-23T05:22:09.209Z,90.70
2017-12-23T05:24:38.311Z,91.00
2017-12-23T05:27:06.660Z,91.00
2017-12-23T05:29:35.032Z,90.90
2017-12-23T05:32:03.373Z,91.20
2017-12-23T05:34:31.716Z,90.90
2017-12-23T05:37:00.829Z,90.70
2017-12-23T05:39:29.177Z,90.70
2017-12-23T05:41:58.305Z,90.80
2017-12-23T05:44:26.648Z,90.80
2017-12-23T05:46:55.767Z,91.10
2017-12-23T05:49:24.134Z,91.10
2017-12-23T05:51:53.242Z,90.90
2017-12-23T05:54:21.588Z,90.90
2017-12-23T05:56:50.895Z,91.20
2017-12-23T05:59:20.223Z,90.80
2017-12-23T06:01:48.806Z,90.70
2017-12-23T06:04:17.150Z,90.80
2017-12-23T06:06:46.264Z,91.00
2017-12-23T06:09:14.610Z,91.00
2017-12-23T06:11:42.949Z,90.80
2017-12-23T06:14:11.324Z,90.80
2017-12-23T06:16:39.668Z,90.60
2017-12-23T06:19:08.082Z,90.70
2017-12-23T06:21:36.432Z,90.70
2017-12-23T06:24:04.768Z,90.60
2017-12-23T06:26:33.129Z,90.90
2017-12-23T06:29:01.477Z,90.80
2017-12-23T06:31:29.895Z,90.80
2017-12-23T06:33:58.246Z,90.80
2017-12-23T06:36:26.590Z,90.90
2017-12-23T06:38:54.961Z,90.80
2017-12-23T06:41:24.064Z,90.60
2017-12-23T06:43:52.407Z,90.60
2017-12-23T06:46:21.098Z,90.60
2017-12-23T06:48:49.437Z,90.80
2017-12-23T06:51:19.413Z,90.70
2017-12-23T06:53:49.575Z,90.70
2017-12-23T06:56:18.008Z,90.70
2017-12-23T06:58:47.171Z,90.80
2017-12-23T07:01:15.696Z,90.80
2017-12-23T07:03:44.040Z,90.80
2017-12-23T07:06:12.397Z,90.80
2017-12-23T07:08:40.729Z,90.70
2017-12-23T07:11:09.099Z,90.60
2017-12-23T07:13:38.207Z,90.60
2017-12-23T07:16:06.564Z,90.60
2017-12-23T07:18:35.672Z,91.00
2017-12-23T07:21:04.020Z,90.60
2017-12-23T07:23:32.380Z,90.60
2017-12-23T07:26:00.721Z,90.70
2017-12-23T07:28:29.077Z,90.80
2017-12-23T07:30:57.420Z,90.80
2017-12-23T07:33:25.858Z,90.90
2017-12-23T07:35:54.208Z,90.80
2017-12-23T07:38:23.304Z,90.90
2017-12-23T07:40:52.420Z,90.80
2017-12-23T07:43:21.235Z,90.80
2017-12-23T07:45:49.606Z,90.70
2017-12-23T07:48:18.167Z,90.70
2017-12-23T07:50:46.534Z,90.60
2017-12-23T07:53:14.878Z,90.80
2017-12-23T07:55:43.223Z,90.80
2017-12-23T07:58:11.577Z,90.50
2017-12-23T08:00:39.939Z,90.70
2017-12-23T08:03:08.277Z,90.80
2017-12-23T08:05:36.439Z,91.00
2017-12-23T08:08:05.566Z,90.90
2017-12-23T08:10:34.677Z,91.10
2017-12-23T08:13:03.967Z,91.10
2017-12-23T08:15:33.087Z,90.80
2017-12-23T08:18:01.436Z,90.80
2017-12-23T08:20:30.533Z,91.30
2017-12-23T08:22:59.636Z,90.90
2017-12-23T08:25:27.980Z,90.90
2017-12-23T08:27:56.363Z,90.80
2017-12-23T08:30:24.701Z,90.70
2017-12-23T08:32:53.069Z,90.80
2017-12-23T08:35:21.477Z,91.00
2017-12-23T08:37:50.526Z,90.80
2017-12-23T08:40:19.332Z,90.70
2017-12-23T08:42:47.704Z,90.80
2017-12-23T08:45:16.046Z,90.70
2017-12-23T08:47:45.152Z,90.90
2017-12-23T08:50:14.275Z,90.60
2017-12-23T08:52:42.633Z,90.60
2017-12-23T08:55:10.973Z,90.60
2017-12-23T08:57:39.329Z,90.60
2017-12-23T09:00:08.433Z,90.80
2017-12-23T09:02:36.780Z,91.10
2017-12-23T09:05:05.146Z,90.70
2017-12-23T09:07:33.469Z,90.80
2017-12-23T09:10:01.821Z,90.90
2017-12-23T09:12:29.857Z,90.80
2017-12-23T09:14:58.968Z,90.60
2017-12-23T09:17:27.325Z,90.60
2017-12-23T09:19:56.443Z,90.70
2017-12-23T09:22:24.774Z,90.60
2017-12-23T09:24:53.144Z,90.60
2017-12-23T09:27:21.493Z,91.20
2017-12-23T09:29:50.670Z,90.80
2017-12-23T09:32:19.683Z,90.70
2017-12-23T09:34:48.150Z,90.70
2017-12-23T09:37:16.474Z,90.80
2017-12-23T09:39:44.851Z,90.60
2017-12-23T09:42:13.201Z,90.80
2017-12-23T09:44:41.614Z,91.10
2017-12-23T09:47:10.098Z,90.80
2017-12-23T09:49:39.213Z,90.70
2017-12-23T09:52:07.572Z,91.00
2017-12-23T09:54:36.181Z,90.80
2017-12-23T09:57:04.554Z,91.10
2017-12-23T09:59:32.896Z,90.80
2017-12-23T10:02:01.261Z,90.80
2017-12-23T10:04:29.588Z,90.60
2017-12-23T10:06:57.979Z,90.60
2017-12-23T10:09:26.484Z,90.60
2017-12-23T10:11:54.820Z,90.80
2017-12-23T10:14:23.237Z,90.90
2017-12-23T10:16:52.345Z,90.90
2017-12-23T10:19:21.544Z,90.90
2017-12-23T10:21:50.602Z,90.80
2017-12-23T10:24:19.460Z,90.60
2017-12-23T10:26:48.596Z,90.80
2017-12-23T10:29:16.958Z,90.80
2017-12-23T10:31:45.300Z,90.90
2017-12-23T10:34:14.457Z,90.80
2017-12-23T10:36:42.781Z,90.80
2017-12-23T10:39:11.909Z,90.80
2017-12-23T10:41:40.255Z,90.80
2017-12-23T10:44:09.356Z,90.70
2017-12-23T10:46:37.696Z,90.80
2017-12-23T10:49:06.054Z,90.70
2017-12-23T10:51:34.440Z,90.80
2017-12-23T10:54:02.766Z,90.80
2017-12-23T10:56:31.117Z,90.80
2017-12-23T10:58:59.464Z,90.70
2017-12-23T11:01:27.804Z,90.80
2017-12-23T11:03:56.141Z,90.80
2017-12-23T11:06:24.525Z,90.80
2017-12-23T11:08:52.859Z,90.80
2017-12-23T11:11:21.223Z,90.80
2017-12-23T11:13:50.469Z,90.90
2017-12-23T11:16:19.485Z,91.00
2017-12-23T11:18:49.090Z,90.90
2017-12-23T11:21:18.275Z,91.00
2017-12-23T11:23:46.624Z,91.00
2017-12-23T11:26:14.971Z,91.10
2017-12-23T11:28:43.303Z,91.00
2017-12-23T11:31:11.662Z,90.90
2017-12-23T11:33:40.001Z,90.70
2017-12-23T11:36:08.375Z,90.80
2017-12-23T11:38:36.713Z,90.80
2017-12-23T11:41:05.047Z,90.90
2017-12-23T11:43:33.412Z,90.90
2017-12-23T11:46:01.750Z,90.80
2017-12-23T11:48:30.120Z,91.00
2017-12-23T11:50:58.484Z,91.00
2017-12-23T11:53:26.824Z,90.90
2017-12-23T11:55:55.183Z,90.90
2017-12-23T11:58:23.529Z,90.80
2017-12-23T12:00:51.870Z,90.90
2017-12-23T12:03:21.118Z,90.90
2017-12-23T12:05:51.016Z,90.80
2017-12-23T12:08:19.367Z,90.80
2017-12-23T12:10:47.714Z,90.70
2017-12-23T12:13:16.074Z,90.80
2017-12-23T12:15:45.252Z,90.80
2017-12-23T12:18:13.756Z,90.70
2017-12-23T12:20:42.112Z,90.80
2017-12-23T12:23:11.235Z,91.00
2017-12-23T12:25:39.623Z,90.80
2017-12-23T12:28:07.956Z,90.80
2017-12-23T12:30:36.315Z,90.90
2017-12-23T12:33:04.668Z,91.30
2017-12-23T12:35:33.006Z,90.80
2017-12-23T12:38:02.139Z,90.80
2017-12-23T12:40:30.486Z,90.80
2017-12-23T12:42:59.604Z,91.20
2017-12-23T12:45:27.946Z,90.90
2017-12-23T12:47:57.073Z,90.80
2017-12-23T12:50:25.441Z,90.80
2017-12-23T12:52:53.783Z,90.90
2017-12-23T12:55:22.134Z,91.00
2017-12-23T12:57:50.486Z,91.00
2017-12-23T13:00:19.576Z,91.00
2017-12-23T13:02:49.660Z,90.90
2017-12-23T13:05:19.643Z,90.90
2017-12-23T13:07:48.362Z,90.90
2017-12-23T13:10:17.469Z,90.90
2017-12-23T13:12:45.797Z,90.90
2017-12-23T13:15:14.160Z,90.90
2017-12-23T13:17:42.499Z,90.90
2017-12-23T13:20:11.608Z,90.80
2017-12-23T13:22:39.956Z,90.80
2017-12-23T13:25:09.069Z,90.80
2017-12-23T13:27:37.215Z,90.80
2017-12-23T13:30:05.573Z,90.80
2017-12-23T13:32:33.923Z,90.90
2017-12-23T13:35:02.253Z,90.80
2017-12-23T13:37:31.363Z,91.00
2017-12-23T13:40:00.504Z,90.70
2017-12-23T13:42:28.844Z,90.70
2017-12-23T13:44:57.201Z,90.80
2017-12-23T13:47:26.316Z,90.80
2017-12-23T13:49:54.717Z,90.80
2017-12-23T13:52:23.044Z,90.80
2017-12-23T13:54:52.194Z,90.80
2017-12-23T13:57:20.565Z,90.80
2017-12-23T13:59:49.247Z,90.80
2017-12-23T14:02:17.581Z,90.90
2017-12-23T14:04:46.697Z,90.70
2017-12-23T14:07:15.038Z,90.70
2017-12-23T14:09:43.397Z,90.80
2017-12-23T14:12:11.744Z,90.80
2017-12-23T14:14:40.077Z,90.80
2017-12-23T14:17:08.439Z,90.80
2017-12-23T14:19:36.782Z,90.80
2017-12-23T14:22:06.128Z,91.00
2017-12-23T14:24:34.569Z,90.80
2017-12-23T14:27:02.908Z,90.70
2017-12-23T14:29:32.022Z,90.70
2017-12-23T14:32:00.397Z,90.70
2017-12-23T14:34:28.751Z,90.90
2017-12-23T14:36:57.873Z,90.70
2017-12-23T14:39:26.225Z,90.70
2017-12-23T14:41:55.342Z,90.90
2017-12-23T14:44:23.683Z,90.80
2017-12-23T14:46:52.472Z,91.20
2017-12-23T14:49:21.740Z,90.80
2017-12-23T14:51:50.913Z,90.90
2017-12-23T14:54:19.880Z,90.90
2017-12-23T14:56:49.024Z,90.80
2017-12-23T14:59:17.396Z,90.80
2017-12-23T15:01:45.773Z,90.90
2017-12-23T15:04:14.111Z,91.00
2017-12-23T15:06:42.511Z,90.90
2017-12-23T15:09:10.871Z,90.90
2017-12-23T15:11:39.209Z,90.80
2017-12-23T15:14:07.539Z,90.70
2017-12-23T15:16:35.901Z,90.70
2017-12-23T15:19:04.243Z,90.60
2017-12-23T15:21:32.602Z,90.70
2017-12-23T15:24:00.935Z,90.60
2017-12-23T15:26:29.329Z,90.50
2017-12-23T15:28:57.660Z,90.60
2017-12-23T15:31:26.765Z,90.70
2017-12-23T15:33:55.882Z,90.70
2017-12-23T15:36:24.225Z,90.70
2017-12-23T15:38:52.577Z,90.60
2017-12-23T15:41:21.614Z,90.70
2017-12-23T15:43:51.449Z,90.80
2017-12-23T15:46:19.813Z,90.80
2017-12-23T15:48:48.551Z,91.00
2017-12-23T15:51:16.555Z,90.60
2017-12-23T15:53:45.660Z,90.70
2017-12-23T15:56:14.009Z,90.70
2017-12-23T15:58:42.366Z,90.70
2017-12-23T16:01:10.701Z,90.40
2017-12-23T16:03:39.057Z,90.60
2017-12-23T16:06:08.133Z,90.60
2017-12-23T16:08:36.511Z,90.50
2017-12-23T16:11:04.845Z,90.50
2017-12-23T16:13:33.157Z,90.60
2017-12-23T16:16:01.509Z,90.70
2017-12-23T16:18:29.841Z,90.50
2017-12-23T16:20:58.186Z,90.50
2017-12-23T16:23:26.538Z,90.50
2017-12-23T16:25:54.900Z,90.50
2017-12-23T16:28:23.244Z,90.50
2017-12-23T16:30:52.345Z,90.40
2017-12-23T16:33:21.466Z,90.50
2017-12-23T16:35:50.172Z,90.40
2017-12-23T16:38:18.830Z,90.50
2017-12-23T16:40:47.186Z,90.40
2017-12-23T16:43:16.315Z,90.30
2017-12-23T16:45:44.642Z,90.20
2017-12-23T16:48:13.748Z,90.30
2017-12-23T16:50:42.876Z,90.30
2017-12-23T16:53:11.201Z,90.30
2017-12-23T16:55:39.540Z,90.30
2017-12-23T16:58:07.882Z,90.30
2017-12-23T17:00:36.995Z,90.20
2017-12-23T17:03:05.342Z,90.20
2017-12-23T17:05:34.470Z,90.10
2017-12-23T17:08:02.813Z,90.00
2017-12-23T17:10:31.915Z,90.10
2017-12-23T17:13:01.041Z,90.10
2017-12-23T17:15:29.378Z,90.10
2017-12-23T17:17:58.488Z,90.10
2017-12-23T17:20:26.498Z,90.10
2017-12-23T17:22:54.502Z,90.20
2017-12-23T17:25:23.609Z,90.30
2017-12-23T17:27:52.726Z,90.10
2017-12-23T17:30:34.038Z,90.10
2017-12-23T17:33:02.392Z,90.10
2017-12-23T17:35:30.734Z,90.00
2017-12-23T17:37:59.836Z,90.10
2017-12-23T17:40:28.933Z,90.10
2017-12-23T17:42:58.062Z,90.00
2017-12-23T17:45:26.466Z,90.00
2017-12-23T17:47:54.825Z,90.00
2017-12-23T17:50:23.168Z,90.00
2017-12-23T17:52:51.512Z,90.20
2017-12-23T17:55:19.946Z,90.30
2017-12-23T17:57:48.757Z,90.20
2017-12-23T18:00:17.230Z,90.20
2017-12-23T18:02:45.589Z,90.10
2017-12-23T18:05:13.933Z,90.10
2017-12-23T18:07:43.086Z,90.00
2017-12-23T18:10:11.425Z,90.00
2017-12-23T18:12:39.765Z,89.90
2017-12-23T18:15:08.134Z,89.90
2017-12-23T18:17:36.477Z,89.90
2017-12-23T18:20:04.812Z,89.90
2017-12-23T18:22:33.943Z,89.90
2017-12-23T18:25:02.281Z,89.90
2017-12-23T18:27:31.421Z,90.00
2017-12-23T18:29:59.092Z,90.00
2017-12-23T18:32:27.434Z,90.00
2017-12-23T18:34:55.779Z,90.10
2017-12-23T18:37:24.120Z,90.20
2017-12-23T18:39:52.463Z,90.10
2017-12-23T18:42:21.586Z,90.10
2017-12-23T18:44:49.926Z,90.00
2017-12-23T18:47:19.263Z,90.10
2017-12-23T18:49:47.607Z,90.10
2017-12-23T18:52:16.730Z,90.20
2017-12-23T18:54:45.065Z,90.20
2017-12-23T18:57:14.170Z,90.00
2017-12-23T18:59:43.305Z,89.80
2017-12-23T19:02:11.824Z,89.80
2017-12-23T19:04:40.196Z,90.00
2017-12-23T19:07:08.346Z,90.00
2017-12-23T19:09:36.730Z,90.10
2017-12-23T19:12:05.094Z,90.10
2017-12-23T19:14:33.462Z,90.10
2017-12-23T19:17:01.127Z,90.10
2017-12-23T19:19:29.468Z,89.90
2017-12-23T19:21:58.580Z,89.80
2017-12-23T19:24:26.941Z,89.90
2017-12-23T19:26:56.029Z,90.00
2017-12-23T19:29:24.832Z,90.00
2017-12-23T19:31:53.179Z,89.90
2017-12-23T19:34:21.550Z,90.00
2017-12-23T19:36:50.707Z,90.00
2017-12-23T19:39:19.343Z,89.80
2017-12-23T19:41:48.577Z,89.70
2017-12-23T19:44:16.921Z,89.70
2017-12-23T19:46:46.030Z,90.00
2017-12-23T19:49:15.142Z,89.80
2017-12-23T19:51:43.510Z,89.80
2017-12-23T19:54:11.877Z,89.70
2017-12-23T19:56:40.996Z,90.00
2017-12-23T19:59:09.330Z,90.00
2017-12-23T20:01:37.671Z,89.60
2017-12-23T20:04:06.012Z,89.90
2017-12-23T20:06:34.380Z,89.90
2017-12-23T20:09:03.211Z,90.00
2017-12-23T20:11:31.557Z,90.00
2017-12-23T20:14:00.869Z,90.30
2017-12-23T20:16:29.206Z,89.90
2017-12-23T20:18:57.557Z,90.00
2017-12-23T20:21:25.925Z,90.10
2017-12-23T20:23:54.320Z,89.90
2017-12-23T20:26:22.651Z,89.90
2017-12-23T20:28:51.576Z,89.90
2017-12-23T20:31:20.810Z,89.70
2017-12-23T20:33:50.429Z,89.90
2017-12-23T20:36:19.604Z,89.70
2017-12-23T20:38:49.360Z,89.70
2017-12-23T20:41:17.693Z,89.70
2017-12-23T20:43:46.117Z,89.80
2017-12-23T20:46:14.466Z,89.70
2017-12-23T20:48:43.610Z,90.00
2017-12-23T20:51:11.964Z,90.00
2017-12-23T20:53:40.291Z,90.10
2017-12-23T20:56:08.670Z,90.10
2017-12-23T20:58:36.999Z,90.30
2017-12-23T21:01:07.009Z,90.10
2017-12-23T21:03:35.397Z,90.00
2017-12-23T21:06:03.752Z,90.00
2017-12-23T21:08:32.168Z,89.70
2017-12-23T21:11:00.517Z,89.90
2017-12-23T21:13:28.873Z,89.80
2017-12-23T21:15:57.992Z,89.90
2017-12-23T21:18:26.360Z,89.90
2017-12-23T21:20:54.695Z,89.60
2017-12-23T21:23:23.092Z,89.50
2017-12-23T21:25:52.196Z,89.50
2017-12-23T21:28:21.721Z,89.40
2017-12-23T21:30:50.132Z,89.40
2017-12-23T21:33:18.683Z,89.60
2017-12-23T21:35:47.027Z,89.20
2017-12-23T21:38:16.140Z,89.40
2017-12-23T21:40:44.482Z,89.40
2017-12-23T21:43:12.853Z,89.60
2017-12-23T21:45:41.207Z,90.00
2017-12-23T21:48:09.565Z,89.20
2017-12-23T21:50:37.910Z,89.40
2017-12-23T21:53:07.057Z,89.50
2017-12-23T21:55:35.393Z,89.50
2017-12-23T21:58:04.530Z,89.50
2017-12-23T22:00:33.634Z,89.50
2017-12-23T22:03:01.975Z,89.40
2017-12-23T22:05:30.321Z,89.20
2017-12-23T22:07:59.419Z,89.30
2017-12-23T22:10:28.506Z,89.30
2017-12-23T22:12:57.639Z,89.20
2017-12-23T22:15:25.967Z,89.20
2017-12-23T22:17:54.303Z,89.20
2017-12-23T22:20:22.635Z,89.20
2017-12-23T22:22:51.776Z,89.20
2017-12-23T22:25:20.113Z,89.10
2017-12-23T22:27:50.053Z,88.90
2017-12-23T22:30:18.626Z,88.90
2017-12-23T22:32:46.958Z,88.80
2017-12-23T22:35:15.322Z,88.90
2017-12-23T22:37:43.663Z,89.10
2017-12-23T22:40:12.000Z,89.30
2017-12-23T22:42:40.367Z,89.20
2017-12-23T22:45:08.702Z,88.90
2017-12-23T22:47:37.034Z,89.00
2017-12-23T22:50:05.407Z,89.10
2017-12-23T22:52:33.748Z,89.20
2017-12-23T22:55:02.094Z,89.10
2017-12-23T22:57:30.439Z,89.40
2017-12-23T22:59:58.768Z,89.30
2017-12-23T23:02:27.215Z,89.10
2017-12-23T23:04:56.324Z,89.90
2017-12-23T23:07:24.648Z,89.20
2017-12-23T23:09:52.996Z,89.30
2017-12-23T23:12:22.315Z,89.10
2017-12-23T23:14:51.538Z,89.00
2017-12-23T23:17:20.574Z,88.80
2017-12-23T23:19:49.438Z,89.90
2017-12-23T23:22:18.637Z,88.90
2017-12-23T23:24:47.739Z,88.80
2017-12-23T23:27:16.840Z,88.70
2017-12-23T23:29:45.183Z,88.70
2017-12-23T23:32:13.563Z,88.80
2017-12-23T23:34:41.913Z,88.80
2017-12-23T23:37:10.265Z,88.80
2017-12-23T23:39:38.590Z,88.60
2017-12-23T23:42:06.975Z,88.70
2017-12-23T23:44:35.300Z,88.80
2017-12-23T23:47:03.644Z,88.80
2017-12-23T23:49:32.746Z,88.60
2017-12-23T23:52:01.075Z,88.50
2017-12-23T23:54:29.441Z,88.80
2017-12-23T23:56:57.770Z,88.70
2017-12-23T23:59:26.879Z,88.60
